Terminal Aerodrome Forecast
Issued by NWS

Home | Current Version | Previous Version | Text Only | Print | Product List | Glossary On
Versions: 1 2 3 4 5 6 7 8 9 10 11 12
000
FTUS45 KABQ 282300
TAFLVS
TAF
KLVS 282338Z 2900/2924 30012KT P6SM BKN250
     FM290200 02006KT P6SM BKN200
     FM291600 09011G18KT P6SM FEW040 BKN120
     FM292200 14009KT P6SM FEW040 BKN080=

USA.gov is the U.S. government's official web portal to all federal, state and local government web resources and services.